sensor_id;sensor_type;location;lat;lon;timestamp;temperature;humidity
19232;DHT22;9750;48.730;10.294;2023-06-19T00:00:47;23.00;63.50
19232;DHT22;9750;48.730;10.294;2023-06-19T00:03:14;23.00;63.80
19232;DHT22;9750;48.730;10.294;2023-06-19T00:05:41;22.90;63.90
19232;DHT22;9750;48.730;10.294;2023-06-19T00:11:30;22.80;64.40
19232;DHT22;9750;48.730;10.294;2023-06-19T00:13:59;22.80;65.50
19232;DHT22;9750;48.730;10.294;2023-06-19T00:16:26;22.70;65.90
19232;DHT22;9750;48.730;10.294;2023-06-19T00:18:54;22.70;66.30
19232;DHT22;9750;48.730;10.294;2023-06-19T00:21:21;22.60;66.80
19232;DHT22;9750;48.730;10.294;2023-06-19T00:23:50;22.60;66.90
19232;DHT22;9750;48.730;10.294;2023-06-19T00:26:19;22.60;67.00
19232;DHT22;9750;48.730;10.294;2023-06-19T00:28:48;22.50;67.30
19232;DHT22;9750;48.730;10.294;2023-06-19T00:31:17;22.50;66.70
19232;DHT22;9750;48.730;10.294;2023-06-19T00:33:45;22.50;67.10
19232;DHT22;9750;48.730;10.294;2023-06-19T00:36:14;22.40;67.30
19232;DHT22;9750;48.730;10.294;2023-06-19T00:38:42;22.40;67.40
19232;DHT22;9750;48.730;10.294;2023-06-19T00:41:10;22.40;67.50
19232;DHT22;9750;48.730;10.294;2023-06-19T00:43:37;22.40;67.20
19232;DHT22;9750;48.730;10.294;2023-06-19T00:46:04;22.40;66.70
19232;DHT22;9750;48.730;10.294;2023-06-19T00:48:34;22.40;67.10
19232;DHT22;9750;48.730;10.294;2023-06-19T00:51:01;22.40;67.50
19232;DHT22;9750;48.730;10.294;2023-06-19T00:53:31;22.30;67.70
19232;DHT22;9750;48.730;10.294;2023-06-19T00:55:59;22.30;67.50
19232;DHT22;9750;48.730;10.294;2023-06-19T00:58:27;22.30;67.20
19232;DHT22;9750;48.730;10.294;2023-06-19T01:00:54;22.30;67.10
19232;DHT22;9750;48.730;10.294;2023-06-19T01:03:23;22.30;67.40
19232;DHT22;9750;48.730;10.294;2023-06-19T01:05:54;22.30;67.60
19232;DHT22;9750;48.730;10.294;2023-06-19T01:08:41;22.30;68.50
19232;DHT22;9750;48.730;10.294;2023-06-19T01:11:11;22.30;68.70
19232;DHT22;9750;48.730;10.294;2023-06-19T01:13:44;22.20;69.10
19232;DHT22;9750;48.730;10.294;2023-06-19T01:16:12;22.20;69.70
19232;DHT22;9750;48.730;10.294;2023-06-19T01:18:40;22.20;69.50
19232;DHT22;9750;48.730;10.294;2023-06-19T01:21:14;22.10;69.60
19232;DHT22;9750;48.730;10.294;2023-06-19T01:23:43;22.10;70.60
19232;DHT22;9750;48.730;10.294;2023-06-19T01:26:11;22.10;70.20
19232;DHT22;9750;48.730;10.294;2023-06-19T01:28:41;22.10;70.30
19232;DHT22;9750;48.730;10.294;2023-06-19T01:31:11;22.00;71.60
19232;DHT22;9750;48.730;10.294;2023-06-19T01:33:40;22.00;71.20
19232;DHT22;9750;48.730;10.294;2023-06-19T01:36:10;21.90;71.40
19232;DHT22;9750;48.730;10.294;2023-06-19T01:38:39;21.90;71.30
19232;DHT22;9750;48.730;10.294;2023-06-19T01:41:08;21.80;71.30
19232;DHT22;9750;48.730;10.294;2023-06-19T01:43:36;21.80;71.90
19232;DHT22;9750;48.730;10.294;2023-06-19T01:46:04;21.70;72.30
19232;DHT22;9750;48.730;10.294;2023-06-19T01:48:32;21.70;72.20
19232;DHT22;9750;48.730;10.294;2023-06-19T01:50:59;21.70;72.40
19232;DHT22;9750;48.730;10.294;2023-06-19T01:53:26;21.60;72.20
19232;DHT22;9750;48.730;10.294;2023-06-19T01:55:55;21.60;72.00
19232;DHT22;9750;48.730;10.294;2023-06-19T01:58:23;21.60;71.80
19232;DHT22;9750;48.730;10.294;2023-06-19T02:00:51;21.60;72.30
19232;DHT22;9750;48.730;10.294;2023-06-19T02:03:18;21.60;72.20
19232;DHT22;9750;48.730;10.294;2023-06-19T02:05:45;21.50;72.40
19232;DHT22;9750;48.730;10.294;2023-06-19T02:08:12;21.50;72.60
19232;DHT22;9750;48.730;10.294;2023-06-19T02:10:40;21.50;73.00
19232;DHT22;9750;48.730;10.294;2023-06-19T02:13:07;21.50;72.60
19232;DHT22;9750;48.730;10.294;2023-06-19T02:15:36;21.50;72.60
19232;DHT22;9750;48.730;10.294;2023-06-19T02:18:04;21.50;72.10
19232;DHT22;9750;48.730;10.294;2023-06-19T02:20:32;21.50;71.60
19232;DHT22;9750;48.730;10.294;2023-06-19T02:23:00;21.50;71.60
19232;DHT22;9750;48.730;10.294;2023-06-19T02:25:27;21.50;72.20
19232;DHT22;9750;48.730;10.294;2023-06-19T02:27:54;21.30;73.60
19232;DHT22;9750;48.730;10.294;2023-06-19T02:30:21;21.20;74.80
19232;DHT22;9750;48.730;10.294;2023-06-19T02:32:50;21.10;74.50
19232;DHT22;9750;48.730;10.294;2023-06-19T02:35:18;21.10;73.80
19232;DHT22;9750;48.730;10.294;2023-06-19T02:41:07;21.10;74.80
19232;DHT22;9750;48.730;10.294;2023-06-19T02:43:34;21.10;75.50
19232;DHT22;9750;48.730;10.294;2023-06-19T02:46:01;21.10;75.70
19232;DHT22;9750;48.730;10.294;2023-06-19T02:51:08;21.00;74.20
19232;DHT22;9750;48.730;10.294;2023-06-19T02:53:35;21.00;74.50
19232;DHT22;9750;48.730;10.294;2023-06-19T02:56:03;21.00;74.80
19232;DHT22;9750;48.730;10.294;2023-06-19T02:58:31;21.00;75.00
19232;DHT22;9750;48.730;10.294;2023-06-19T03:00:58;21.00;74.90
19232;DHT22;9750;48.730;10.294;2023-06-19T03:03:25;20.90;75.30
19232;DHT22;9750;48.730;10.294;2023-06-19T03:05:54;20.90;75.20
19232;DHT22;9750;48.730;10.294;2023-06-19T03:11:43;20.90;75.50
19232;DHT22;9750;48.730;10.294;2023-06-19T03:14:10;20.80;76.70
19232;DHT22;9750;48.730;10.294;2023-06-19T03:16:37;20.60;75.70
19232;DHT22;9750;48.730;10.294;2023-06-19T03:19:04;20.60;75.60
19232;DHT22;9750;48.730;10.294;2023-06-19T03:21:33;20.70;75.40
19232;DHT22;9750;48.730;10.294;2023-06-19T03:24:01;20.70;75.70
19232;DHT22;9750;48.730;10.294;2023-06-19T03:26:28;20.80;75.30
19232;DHT22;9750;48.730;10.294;2023-06-19T03:28:55;20.80;75.60
19232;DHT22;9750;48.730;10.294;2023-06-19T03:31:22;20.90;75.70
19232;DHT22;9750;48.730;10.294;2023-06-19T03:33:50;20.90;75.50
19232;DHT22;9750;48.730;10.294;2023-06-19T03:36:17;20.90;75.60
19232;DHT22;9750;48.730;10.294;2023-06-19T03:38:46;21.00;75.30
19232;DHT22;9750;48.730;10.294;2023-06-19T03:41:14;21.00;76.00
19232;DHT22;9750;48.730;10.294;2023-06-19T03:43:41;21.00;75.50
19232;DHT22;9750;48.730;10.294;2023-06-19T03:46:09;21.00;76.00
19232;DHT22;9750;48.730;10.294;2023-06-19T03:48:36;21.10;76.30
19232;DHT22;9750;48.730;10.294;2023-06-19T03:51:03;21.10;76.80
19232;DHT22;9750;48.730;10.294;2023-06-19T03:53:31;21.10;77.00
19232;DHT22;9750;48.730;10.294;2023-06-19T03:55:59;21.10;77.20
19232;DHT22;9750;48.730;10.294;2023-06-19T03:58:27;21.10;77.10
19232;DHT22;9750;48.730;10.294;2023-06-19T04:00:54;21.20;77.60
19232;DHT22;9750;48.730;10.294;2023-06-19T04:03:21;21.20;78.10
19232;DHT22;9750;48.730;10.294;2023-06-19T04:05:48;21.20;78.50
19232;DHT22;9750;48.730;10.294;2023-06-19T04:11:39;21.20;77.90
19232;DHT22;9750;48.730;10.294;2023-06-19T04:14:06;21.20;77.50
19232;DHT22;9750;48.730;10.294;2023-06-19T04:16:34;21.20;77.80
19232;DHT22;9750;48.730;10.294;2023-06-19T04:19:01;21.30;78.50
19232;DHT22;9750;48.730;10.294;2023-06-19T04:21:28;21.30;79.10
19232;DHT22;9750;48.730;10.294;2023-06-19T04:23:55;21.30;79.90
19232;DHT22;9750;48.730;10.294;2023-06-19T04:26:22;21.30;79.10
19232;DHT22;9750;48.730;10.294;2023-06-19T04:28:51;21.40;78.50
19232;DHT22;9750;48.730;10.294;2023-06-19T04:31:19;21.50;79.20
19232;DHT22;9750;48.730;10.294;2023-06-19T04:33:47;21.50;78.30
19232;DHT22;9750;48.730;10.294;2023-06-19T04:36:14;21.50;78.30
19232;DHT22;9750;48.730;10.294;2023-06-19T04:38:42;21.50;78.20
19232;DHT22;9750;48.730;10.294;2023-06-19T04:41:09;21.60;78.30
19232;DHT22;9750;48.730;10.294;2023-06-19T04:43:37;21.60;78.70
19232;DHT22;9750;48.730;10.294;2023-06-19T04:46:08;21.60;78.30
19232;DHT22;9750;48.730;10.294;2023-06-19T04:48:35;21.60;78.80
19232;DHT22;9750;48.730;10.294;2023-06-19T04:51:03;21.60;79.00
19232;DHT22;9750;48.730;10.294;2023-06-19T04:53:30;21.70;78.80
19232;DHT22;9750;48.730;10.294;2023-06-19T04:55:57;21.70;78.90
19232;DHT22;9750;48.730;10.294;2023-06-19T04:58:24;21.70;79.50
19232;DHT22;9750;48.730;10.294;2023-06-19T05:00:52;21.70;79.00
19232;DHT22;9750;48.730;10.294;2023-06-19T05:03:21;21.70;79.20
19232;DHT22;9750;48.730;10.294;2023-06-19T05:05:49;21.70;79.70
19232;DHT22;9750;48.730;10.294;2023-06-19T05:08:16;21.80;79.80
19232;DHT22;9750;48.730;10.294;2023-06-19T05:10:43;21.80;79.60
19232;DHT22;9750;48.730;10.294;2023-06-19T05:13:10;21.90;80.00
19232;DHT22;9750;48.730;10.294;2023-06-19T05:15:38;21.90;79.90
19232;DHT22;9750;48.730;10.294;2023-06-19T05:18:05;22.00;79.90
19232;DHT22;9750;48.730;10.294;2023-06-19T05:20:34;22.10;79.60
19232;DHT22;9750;48.730;10.294;2023-06-19T05:23:01;22.10;79.90
19232;DHT22;9750;48.730;10.294;2023-06-19T05:25:28;22.10;80.20
19232;DHT22;9750;48.730;10.294;2023-06-19T05:31:17;22.10;80.80
19232;DHT22;9750;48.730;10.294;2023-06-19T05:33:45;22.10;80.40
19232;DHT22;9750;48.730;10.294;2023-06-19T05:36:13;22.10;80.80
19232;DHT22;9750;48.730;10.294;2023-06-19T05:38:41;22.00;80.50
19232;DHT22;9750;48.730;10.294;2023-06-19T05:41:08;22.00;80.50
19232;DHT22;9750;48.730;10.294;2023-06-19T05:43:35;22.10;80.70
19232;DHT22;9750;48.730;10.294;2023-06-19T05:46:03;22.10;80.50
19232;DHT22;9750;48.730;10.294;2023-06-19T05:48:30;22.20;80.20
19232;DHT22;9750;48.730;10.294;2023-06-19T05:50:57;22.20;79.70
19232;DHT22;9750;48.730;10.294;2023-06-19T05:53:26;22.30;79.90
19232;DHT22;9750;48.730;10.294;2023-06-19T05:55:53;22.40;80.10
19232;DHT22;9750;48.730;10.294;2023-06-19T05:58:20;22.40;80.00
19232;DHT22;9750;48.730;10.294;2023-06-19T06:00:49;22.50;80.00
19232;DHT22;9750;48.730;10.294;2023-06-19T06:03:24;22.50;80.10
19232;DHT22;9750;48.730;10.294;2023-06-19T06:05:51;22.50;79.70
19232;DHT22;9750;48.730;10.294;2023-06-19T06:08:19;22.50;79.70
19232;DHT22;9750;48.730;10.294;2023-06-19T06:10:48;22.50;79.80
19232;DHT22;9750;48.730;10.294;2023-06-19T06:13:15;22.40;79.60
19232;DHT22;9750;48.730;10.294;2023-06-19T06:15:42;22.40;79.90
19232;DHT22;9750;48.730;10.294;2023-06-19T06:18:09;22.40;79.70
19232;DHT22;9750;48.730;10.294;2023-06-19T06:20:37;22.40;79.80
19232;DHT22;9750;48.730;10.294;2023-06-19T06:23:04;22.40;79.80
19232;DHT22;9750;48.730;10.294;2023-06-19T06:25:31;22.40;80.40
19232;DHT22;9750;48.730;10.294;2023-06-19T06:28:04;22.30;79.70
19232;DHT22;9750;48.730;10.294;2023-06-19T06:30:31;22.30;80.20
19232;DHT22;9750;48.730;10.294;2023-06-19T06:32:58;22.30;79.80
19232;DHT22;9750;48.730;10.294;2023-06-19T06:35:25;22.40;79.70
19232;DHT22;9750;48.730;10.294;2023-06-19T06:37:53;22.40;80.40
19232;DHT22;9750;48.730;10.294;2023-06-19T06:40:20;22.50;80.00
19232;DHT22;9750;48.730;10.294;2023-06-19T06:42:47;22.50;79.90
19232;DHT22;9750;48.730;10.294;2023-06-19T06:45:16;22.60;79.90
19232;DHT22;9750;48.730;10.294;2023-06-19T06:47:43;22.70;79.60
19232;DHT22;9750;48.730;10.294;2023-06-19T06:50:11;22.80;79.80
19232;DHT22;9750;48.730;10.294;2023-06-19T06:52:38;22.90;79.70
19232;DHT22;9750;48.730;10.294;2023-06-19T06:55:06;23.00;79.80
19232;DHT22;9750;48.730;10.294;2023-06-19T06:57:33;23.00;80.10
19232;DHT22;9750;48.730;10.294;2023-06-19T07:00:00;23.10;80.40
19232;DHT22;9750;48.730;10.294;2023-06-19T07:02:30;23.20;80.20
19232;DHT22;9750;48.730;10.294;2023-06-19T07:04:58;23.30;80.30
19232;DHT22;9750;48.730;10.294;2023-06-19T07:10:30;23.30;79.90
19232;DHT22;9750;48.730;10.294;2023-06-19T07:12:57;23.40;79.90
19232;DHT22;9750;48.730;10.294;2023-06-19T07:15:25;23.40;79.40
19232;DHT22;9750;48.730;10.294;2023-06-19T07:17:53;23.30;78.50
19232;DHT22;9750;48.730;10.294;2023-06-19T07:20:21;23.30;79.20
19232;DHT22;9750;48.730;10.294;2023-06-19T07:22:50;23.30;78.90
19232;DHT22;9750;48.730;10.294;2023-06-19T07:25:18;23.30;79.10
19232;DHT22;9750;48.730;10.294;2023-06-19T07:27:45;23.50;78.90
19232;DHT22;9750;48.730;10.294;2023-06-19T07:30:13;23.60;78.00
19232;DHT22;9750;48.730;10.294;2023-06-19T07:32:40;23.70;78.50
19232;DHT22;9750;48.730;10.294;2023-06-19T07:35:09;23.70;77.90
19232;DHT22;9750;48.730;10.294;2023-06-19T07:37:37;23.90;78.50
19232;DHT22;9750;48.730;10.294;2023-06-19T07:40:05;24.00;78.80
19232;DHT22;9750;48.730;10.294;2023-06-19T07:42:32;24.10;78.90
19232;DHT22;9750;48.730;10.294;2023-06-19T07:45:00;24.10;79.60
19232;DHT22;9750;48.730;10.294;2023-06-19T07:47:27;24.10;80.30
19232;DHT22;9750;48.730;10.294;2023-06-19T07:49:54;24.00;80.50
19232;DHT22;9750;48.730;10.294;2023-06-19T07:52:23;24.00;81.00
19232;DHT22;9750;48.730;10.294;2023-06-19T07:54:51;24.00;80.40
19232;DHT22;9750;48.730;10.294;2023-06-19T07:57:19;24.10;80.50
19232;DHT22;9750;48.730;10.294;2023-06-19T07:59:47;24.10;79.20
19232;DHT22;9750;48.730;10.294;2023-06-19T08:02:14;24.20;79.00
19232;DHT22;9750;48.730;10.294;2023-06-19T08:04:42;24.30;79.50
19232;DHT22;9750;48.730;10.294;2023-06-19T08:07:09;24.40;79.80
19232;DHT22;9750;48.730;10.294;2023-06-19T08:09:38;24.50;78.20
19232;DHT22;9750;48.730;10.294;2023-06-19T08:12:06;24.70;78.60
19232;DHT22;9750;48.730;10.294;2023-06-19T08:14:33;24.80;77.50
19232;DHT22;9750;48.730;10.294;2023-06-19T08:17:00;24.90;76.70
19232;DHT22;9750;48.730;10.294;2023-06-19T08:19:27;24.90;76.00
19232;DHT22;9750;48.730;10.294;2023-06-19T08:21:55;24.70;76.00
19232;DHT22;9750;48.730;10.294;2023-06-19T08:24:22;24.60;76.70
19232;DHT22;9750;48.730;10.294;2023-06-19T08:26:52;24.50;77.20
19232;DHT22;9750;48.730;10.294;2023-06-19T08:29:19;24.50;77.50
19232;DHT22;9750;48.730;10.294;2023-06-19T08:31:46;24.50;77.60
19232;DHT22;9750;48.730;10.294;2023-06-19T08:34:14;24.50;78.10
19232;DHT22;9750;48.730;10.294;2023-06-19T08:36:41;24.50;78.20
19232;DHT22;9750;48.730;10.294;2023-06-19T08:39:08;24.50;77.70
19232;DHT22;9750;48.730;10.294;2023-06-19T08:41:37;24.40;77.60
19232;DHT22;9750;48.730;10.294;2023-06-19T08:44:06;24.50;78.20
19232;DHT22;9750;48.730;10.294;2023-06-19T08:46:33;24.50;77.70
19232;DHT22;9750;48.730;10.294;2023-06-19T08:49:02;24.50;78.10
19232;DHT22;9750;48.730;10.294;2023-06-19T08:51:32;24.60;78.30
19232;DHT22;9750;48.730;10.294;2023-06-19T08:54:02;24.60;77.50
19232;DHT22;9750;48.730;10.294;2023-06-19T08:56:30;24.70;77.70
19232;DHT22;9750;48.730;10.294;2023-06-19T08:59:09;24.70;76.90
19232;DHT22;9750;48.730;10.294;2023-06-19T09:01:37;24.80;76.80
19232;DHT22;9750;48.730;10.294;2023-06-19T09:04:11;24.80;75.70
19232;DHT22;9750;48.730;10.294;2023-06-19T09:06:49;24.80;76.80
19232;DHT22;9750;48.730;10.294;2023-06-19T09:09:18;24.80;76.00
19232;DHT22;9750;48.730;10.294;2023-06-19T09:11:57;25.00;76.60
19232;DHT22;9750;48.730;10.294;2023-06-19T09:14:32;25.20;76.70
19232;DHT22;9750;48.730;10.294;2023-06-19T09:17:01;25.40;75.90
19232;DHT22;9750;48.730;10.294;2023-06-19T09:19:29;25.70;75.80
19232;DHT22;9750;48.730;10.294;2023-06-19T09:22:01;25.90;75.00
19232;DHT22;9750;48.730;10.294;2023-06-19T09:24:35;26.10;74.00
19232;DHT22;9750;48.730;10.294;2023-06-19T09:27:07;26.10;73.80
19232;DHT22;9750;48.730;10.294;2023-06-19T09:29:39;26.10;74.30
19232;DHT22;9750;48.730;10.294;2023-06-19T09:32:17;26.10;74.00
19232;DHT22;9750;48.730;10.294;2023-06-19T09:34:44;26.20;73.80
19232;DHT22;9750;48.730;10.294;2023-06-19T09:37:12;26.20;73.70
19232;DHT22;9750;48.730;10.294;2023-06-19T09:39:40;26.30;73.80
19232;DHT22;9750;48.730;10.294;2023-06-19T09:42:08;26.30;73.10
19232;DHT22;9750;48.730;10.294;2023-06-19T09:44:41;26.30;73.10
19232;DHT22;9750;48.730;10.294;2023-06-19T09:47:16;26.30;73.30
19232;DHT22;9750;48.730;10.294;2023-06-19T09:49:49;26.40;73.00
19232;DHT22;9750;48.730;10.294;2023-06-19T09:52:20;26.50;73.30
19232;DHT22;9750;48.730;10.294;2023-06-19T09:54:49;26.60;74.10
19232;DHT22;9750;48.730;10.294;2023-06-19T09:57:17;26.70;73.20
19232;DHT22;9750;48.730;10.294;2023-06-19T09:59:48;26.80;73.50
19232;DHT22;9750;48.730;10.294;2023-06-19T10:02:16;26.80;72.80
19232;DHT22;9750;48.730;10.294;2023-06-19T10:04:45;26.90;72.70
19232;DHT22;9750;48.730;10.294;2023-06-19T10:07:16;26.90;70.50
19232;DHT22;9750;48.730;10.294;2023-06-19T10:09:58;26.90;70.90
19232;DHT22;9750;48.730;10.294;2023-06-19T10:12:39;27.00;69.50
19232;DHT22;9750;48.730;10.294;2023-06-19T10:15:15;26.90;69.00
19232;DHT22;9750;48.730;10.294;2023-06-19T10:17:46;27.10;70.20
19232;DHT22;9750;48.730;10.294;2023-06-19T10:20:25;27.10;70.80
19232;DHT22;9750;48.730;10.294;2023-06-19T10:23:02;27.10;69.50
19232;DHT22;9750;48.730;10.294;2023-06-19T10:25:31;27.10;70.50
19232;DHT22;9750;48.730;10.294;2023-06-19T10:27:59;27.10;70.10
19232;DHT22;9750;48.730;10.294;2023-06-19T10:30:28;27.00;72.00
19232;DHT22;9750;48.730;10.294;2023-06-19T10:32:56;27.00;70.90
19232;DHT22;9750;48.730;10.294;2023-06-19T10:35:23;27.00;70.20
19232;DHT22;9750;48.730;10.294;2023-06-19T10:37:51;26.90;70.60
19232;DHT22;9750;48.730;10.294;2023-06-19T10:40:18;26.90;70.10
19232;DHT22;9750;48.730;10.294;2023-06-19T10:42:46;26.90;70.70
19232;DHT22;9750;48.730;10.294;2023-06-19T10:45:14;26.90;70.60
19232;DHT22;9750;48.730;10.294;2023-06-19T10:47:44;26.90;70.40
19232;DHT22;9750;48.730;10.294;2023-06-19T10:50:12;26.90;70.20
19232;DHT22;9750;48.730;10.294;2023-06-19T10:52:41;26.90;70.50
19232;DHT22;9750;48.730;10.294;2023-06-19T10:55:10;27.00;71.00
19232;DHT22;9750;48.730;10.294;2023-06-19T10:57:37;27.00;70.00
19232;DHT22;9750;48.730;10.294;2023-06-19T11:00:06;27.00;70.50
19232;DHT22;9750;48.730;10.294;2023-06-19T11:02:39;26.90;70.40
19232;DHT22;9750;48.730;10.294;2023-06-19T11:05:10;26.80;70.60
19232;DHT22;9750;48.730;10.294;2023-06-19T11:07:38;26.70;71.40
19232;DHT22;9750;48.730;10.294;2023-06-19T11:10:06;26.70;71.40
19232;DHT22;9750;48.730;10.294;2023-06-19T11:12:34;26.60;71.30
19232;DHT22;9750;48.730;10.294;2023-06-19T11:15:05;26.60;72.40
19232;DHT22;9750;48.730;10.294;2023-06-19T11:17:32;26.60;73.10
19232;DHT22;9750;48.730;10.294;2023-06-19T11:20:00;26.50;73.70
19232;DHT22;9750;48.730;10.294;2023-06-19T11:22:41;26.50;72.60
19232;DHT22;9750;48.730;10.294;2023-06-19T11:25:10;26.40;72.60
19232;DHT22;9750;48.730;10.294;2023-06-19T11:27:38;26.30;71.60
19232;DHT22;9750;48.730;10.294;2023-06-19T11:30:07;26.20;72.20
19232;DHT22;9750;48.730;10.294;2023-06-19T11:32:37;26.20;72.90
19232;DHT22;9750;48.730;10.294;2023-06-19T11:35:09;26.20;74.00
19232;DHT22;9750;48.730;10.294;2023-06-19T11:37:41;26.10;77.40
19232;DHT22;9750;48.730;10.294;2023-06-19T11:40:09;25.90;83.90
19232;DHT22;9750;48.730;10.294;2023-06-19T11:42:45;25.70;86.70
19232;DHT22;9750;48.730;10.294;2023-06-19T11:45:13;25.60;87.50
19232;DHT22;9750;48.730;10.294;2023-06-19T11:47:43;25.50;90.10
19232;DHT22;9750;48.730;10.294;2023-06-19T11:50:11;25.40;90.70
19232;DHT22;9750;48.730;10.294;2023-06-19T11:52:38;25.50;90.10
19232;DHT22;9750;48.730;10.294;2023-06-19T11:55:08;25.60;90.20
19232;DHT22;9750;48.730;10.294;2023-06-19T12:00:57;25.80;89.00
19232;DHT22;9750;48.730;10.294;2023-06-19T12:03:25;25.90;88.60
19232;DHT22;9750;48.730;10.294;2023-06-19T12:05:52;25.90;89.30
19232;DHT22;9750;48.730;10.294;2023-06-19T12:08:20;26.10;90.40
19232;DHT22;9750;48.730;10.294;2023-06-19T12:10:48;26.30;90.30
19232;DHT22;9750;48.730;10.294;2023-06-19T12:13:17;26.40;90.10
19232;DHT22;9750;48.730;10.294;2023-06-19T12:15:46;26.40;89.30
19232;DHT22;9750;48.730;10.294;2023-06-19T12:18:13;26.30;88.60
19232;DHT22;9750;48.730;10.294;2023-06-19T12:20:40;26.20;87.20
19232;DHT22;9750;48.730;10.294;2023-06-19T12:23:08;26.10;88.00
19232;DHT22;9750;48.730;10.294;2023-06-19T12:25:35;26.00;88.60
19232;DHT22;9750;48.730;10.294;2023-06-19T12:28:04;25.80;89.30
19232;DHT22;9750;48.730;10.294;2023-06-19T12:30:33;25.70;88.20
19232;DHT22;9750;48.730;10.294;2023-06-19T12:33:01;25.70;90.20
19232;DHT22;9750;48.730;10.294;2023-06-19T12:35:29;25.80;90.60
19232;DHT22;9750;48.730;10.294;2023-06-19T12:37:56;25.80;90.50
19232;DHT22;9750;48.730;10.294;2023-06-19T12:40:24;25.90;89.70
19232;DHT22;9750;48.730;10.294;2023-06-19T12:42:51;25.90;90.70
19232;DHT22;9750;48.730;10.294;2023-06-19T12:45:20;26.00;90.60
19232;DHT22;9750;48.730;10.294;2023-06-19T12:47:47;26.10;90.70
19232;DHT22;9750;48.730;10.294;2023-06-19T12:50:14;26.20;89.00
19232;DHT22;9750;48.730;10.294;2023-06-19T12:52:42;26.30;89.00
19232;DHT22;9750;48.730;10.294;2023-06-19T12:55:09;26.40;88.00
19232;DHT22;9750;48.730;10.294;2023-06-19T12:57:36;26.40;88.90
19232;DHT22;9750;48.730;10.294;2023-06-19T13:00:04;26.40;87.40
19232;DHT22;9750;48.730;10.294;2023-06-19T13:02:35;26.30;86.50
19232;DHT22;9750;48.730;10.294;2023-06-19T13:05:02;26.20;85.60
19232;DHT22;9750;48.730;10.294;2023-06-19T13:07:30;26.10;86.70
19232;DHT22;9750;48.730;10.294;2023-06-19T13:09:57;26.10;87.50
19232;DHT22;9750;48.730;10.294;2023-06-19T13:12:25;26.20;86.50
19232;DHT22;9750;48.730;10.294;2023-06-19T13:14:52;26.20;87.20
19232;DHT22;9750;48.730;10.294;2023-06-19T13:17:19;26.30;88.20
19232;DHT22;9750;48.730;10.294;2023-06-19T13:19:48;26.20;87.00
19232;DHT22;9750;48.730;10.294;2023-06-19T13:22:15;26.10;84.20
19232;DHT22;9750;48.730;10.294;2023-06-19T13:24:43;26.20;84.30
19232;DHT22;9750;48.730;10.294;2023-06-19T13:27:10;26.20;83.00
19232;DHT22;9750;48.730;10.294;2023-06-19T13:29:37;26.20;84.00
19232;DHT22;9750;48.730;10.294;2023-06-19T13:32:06;26.30;83.40
19232;DHT22;9750;48.730;10.294;2023-06-19T13:34:33;26.30;83.00
19232;DHT22;9750;48.730;10.294;2023-06-19T13:37:02;26.40;83.60
19232;DHT22;9750;48.730;10.294;2023-06-19T13:39:29;26.50;83.70
19232;DHT22;9750;48.730;10.294;2023-06-19T13:41:57;26.60;81.50
19232;DHT22;9750;48.730;10.294;2023-06-19T13:44:27;26.70;80.40
19232;DHT22;9750;48.730;10.294;2023-06-19T13:46:54;26.80;82.20
19232;DHT22;9750;48.730;10.294;2023-06-19T13:49:21;26.90;82.30
19232;DHT22;9750;48.730;10.294;2023-06-19T13:51:49;27.00;82.30
19232;DHT22;9750;48.730;10.294;2023-06-19T13:54:19;27.10;80.30
19232;DHT22;9750;48.730;10.294;2023-06-19T13:56:46;27.10;78.60
19232;DHT22;9750;48.730;10.294;2023-06-19T13:59:14;27.20;78.10
19232;DHT22;9750;48.730;10.294;2023-06-19T14:01:41;27.20;75.80
19232;DHT22;9750;48.730;10.294;2023-06-19T14:04:09;27.20;76.50
19232;DHT22;9750;48.730;10.294;2023-06-19T14:06:36;27.40;78.00
19232;DHT22;9750;48.730;10.294;2023-06-19T14:09:04;27.50;76.40
19232;DHT22;9750;48.730;10.294;2023-06-19T14:11:33;27.60;77.60
19232;DHT22;9750;48.730;10.294;2023-06-19T14:14:00;27.70;76.90
19232;DHT22;9750;48.730;10.294;2023-06-19T14:16:27;27.90;77.90
19232;DHT22;9750;48.730;10.294;2023-06-19T14:18:54;28.00;75.20
19232;DHT22;9750;48.730;10.294;2023-06-19T14:21:22;28.00;72.30
19232;DHT22;9750;48.730;10.294;2023-06-19T14:23:49;28.10;73.00
19232;DHT22;9750;48.730;10.294;2023-06-19T14:26:17;28.10;71.70
19232;DHT22;9750;48.730;10.294;2023-06-19T14:28:45;28.10;73.80
19232;DHT22;9750;48.730;10.294;2023-06-19T14:31:13;28.10;73.10
19232;DHT22;9750;48.730;10.294;2023-06-19T14:33:40;28.10;73.20
19232;DHT22;9750;48.730;10.294;2023-06-19T14:36:07;28.10;72.70
19232;DHT22;9750;48.730;10.294;2023-06-19T14:38:35;28.20;74.40
19232;DHT22;9750;48.730;10.294;2023-06-19T14:41:02;28.40;75.50
19232;DHT22;9750;48.730;10.294;2023-06-19T14:43:30;28.60;74.90
19232;DHT22;9750;48.730;10.294;2023-06-19T14:46:00;28.80;75.70
19232;DHT22;9750;48.730;10.294;2023-06-19T14:48:27;29.00;74.70
19232;DHT22;9750;48.730;10.294;2023-06-19T14:50:56;29.10;74.20
19232;DHT22;9750;48.730;10.294;2023-06-19T14:53:23;29.30;74.50
19232;DHT22;9750;48.730;10.294;2023-06-19T14:55:50;29.40;73.80
19232;DHT22;9750;48.730;10.294;2023-06-19T14:58:17;29.40;74.20
19232;DHT22;9750;48.730;10.294;2023-06-19T15:00:45;29.50;74.90
19232;DHT22;9750;48.730;10.294;2023-06-19T15:03:15;29.50;72.80
19232;DHT22;9750;48.730;10.294;2023-06-19T15:05:42;29.50;73.50
19232;DHT22;9750;48.730;10.294;2023-06-19T15:08:09;29.50;73.70
19232;DHT22;9750;48.730;10.294;2023-06-19T15:10:37;29.50;72.20
19232;DHT22;9750;48.730;10.294;2023-06-19T15:13:04;29.50;74.00
19232;DHT22;9750;48.730;10.294;2023-06-19T15:15:31;29.50;74.20
19232;DHT22;9750;48.730;10.294;2023-06-19T15:17:58;29.60;73.80
19232;DHT22;9750;48.730;10.294;2023-06-19T15:20:28;29.60;74.40
19232;DHT22;9750;48.730;10.294;2023-06-19T15:22:55;29.60;73.50
19232;DHT22;9750;48.730;10.294;2023-06-19T15:25:22;29.60;70.80
19232;DHT22;9750;48.730;10.294;2023-06-19T15:27:49;29.60;71.30
19232;DHT22;9750;48.730;10.294;2023-06-19T15:30:16;29.70;70.00
19232;DHT22;9750;48.730;10.294;2023-06-19T15:32:44;29.70;70.10
19232;DHT22;9750;48.730;10.294;2023-06-19T15:35:11;29.70;67.20
19232;DHT22;9750;48.730;10.294;2023-06-19T15:37:40;29.60;68.50
19232;DHT22;9750;48.730;10.294;2023-06-19T15:40:08;29.80;68.20
19232;DHT22;9750;48.730;10.294;2023-06-19T15:42:35;29.80;67.30
19232;DHT22;9750;48.730;10.294;2023-06-19T15:45:03;29.90;68.70
19232;DHT22;9750;48.730;10.294;2023-06-19T15:47:31;30.00;69.30
19232;DHT22;9750;48.730;10.294;2023-06-19T15:50:00;30.10;68.20
19232;DHT22;9750;48.730;10.294;2023-06-19T15:52:27;30.10;68.90
19232;DHT22;9750;48.730;10.294;2023-06-19T15:54:56;30.10;70.60
19232;DHT22;9750;48.730;10.294;2023-06-19T15:57:24;30.00;67.20
19232;DHT22;9750;48.730;10.294;2023-06-19T15:59:51;30.10;72.20
19232;DHT22;9750;48.730;10.294;2023-06-19T16:02:18;30.10;73.40